Time;durP1;ratioP1;P1;durP2;ratioP2;P2;SDS_P1;SDS_P2;PMS_P1;PMS_P2;Temp;Humidity;BMP_temperature;BMP_pressure;BME280_temperature;BME280_humidity;BME280_pressure;Samples;Min_cycle;Max_cycle;Signal;HPM_P1;HPM_P2
2023/03/20 00:00:40;;;;;;;16.05;7.50;;;11.10;91.30;;;;;;5006224;28;20103;-86
2023/03/20 00:03:05;;;;;;;17.27;7.45;;;11.00;91.50;;;;;;5039430;28;20122;-85
2023/03/20 00:05:32;;;;;;;14.48;7.35;;;11.00;91.90;;;;;;5040212;28;20017;-85
2023/03/20 00:07:58;;;;;;;17.25;7.40;;;11.00;91.50;;;;;;5022340;28;20490;-86
2023/03/20 00:10:38;;;;;;;14.88;6.70;;;11.00;91.50;;;;;;5056053;28;20052;-86
2023/03/20 00:13:06;;;;;;;13.35;6.38;;;11.00;91.50;;;;;;5050419;28;20459;-86
2023/03/20 00:15:38;;;;;;;13.68;6.32;;;11.00;91.60;;;;;;5076921;28;20017;-85
2023/03/20 00:18:18;;;;;;;13.60;6.53;;;11.00;91.50;;;;;;5076967;28;20386;-85
2023/03/20 00:20:49;;;;;;;11.60;5.72;;;11.00;91.50;;;;;;5075778;28;20032;-86
2023/03/20 00:23:15;;;;;;;12.65;6.18;;;11.00;91.40;;;;;;5075518;28;20024;-85
2023/03/20 00:25:43;;;;;;;12.20;6.15;;;11.00;91.60;;;;;;5077273;28;20505;-85
2023/03/20 00:28:30;;;;;;;12.43;5.97;;;11.00;91.70;;;;;;5076201;28;20021;-85
2023/03/20 00:30:55;;;;;;;9.38;5.03;;;11.00;91.70;;;;;;5075770;28;20493;-85
2023/03/20 00:33:21;;;;;;;12.35;5.45;;;10.90;91.70;;;;;;5075437;28;20052;-86
2023/03/20 00:35:47;;;;;;;10.35;4.90;;;10.80;91.70;;;;;;5042832;28;20115;-85
2023/03/20 00:38:12;;;;;;;10.48;5.35;;;10.80;91.90;;;;;;5059433;28;20032;-85
2023/03/20 00:40:38;;;;;;;12.60;5.45;;;10.80;91.90;;;;;;5058847;28;20116;-85
2023/03/20 00:43:04;;;;;;;14.68;6.35;;;10.80;92.20;;;;;;5042155;28;20028;-86
2023/03/20 00:45:32;;;;;;;12.95;5.80;;;10.70;92.20;;;;;;5042321;28;20024;-86
2023/03/20 00:47:58;;;;;;;12.07;5.45;;;10.70;92.40;;;;;;5076306;28;20509;-86
2023/03/20 00:50:28;;;;;;;13.05;5.38;;;10.70;92.30;;;;;;5075084;28;20029;-85
2023/03/20 00:52:54;;;;;;;12.32;5.53;;;10.70;92.50;;;;;;5076074;28;20029;-86
2023/03/20 00:55:22;;;;;;;14.13;5.25;;;10.70;92.40;;;;;;5058568;28;20441;-86
2023/03/20 00:57:50;;;;;;;14.68;5.70;;;10.60;92.60;;;;;;5079016;28;20034;-86
2023/03/20 01:00:23;;;;;;;12.77;5.32;;;10.60;92.60;;;;;;5096695;28;20028;-86
2023/03/20 01:02:52;;;;;;;11.52;5.15;;;10.60;92.80;;;;;;5078589;28;20024;-86
2023/03/20 01:05:18;;;;;;;12.88;5.10;;;10.60;92.70;;;;;;5096079;28;20031;-84
2023/03/20 01:07:44;;;;;;;15.63;5.78;;;10.60;92.70;;;;;;5078565;28;20020;-85
2023/03/20 01:10:11;;;;;;;12.50;5.18;;;10.50;92.80;;;;;;5079320;28;20000;-85
2023/03/20 01:12:39;;;;;;;12.25;4.35;;;10.50;92.90;;;;;;5078756;28;20028;-86
2023/03/20 01:15:22;;;;;;;10.02;4.60;;;10.50;92.70;;;;;;5045056;28;20051;-86
2023/03/20 01:17:48;;;;;;;10.90;5.50;;;10.60;92.70;;;;;;5096110;28;20487;-85
2023/03/20 01:20:25;;;;;;;11.90;4.63;;;10.60;92.70;;;;;;5077920;28;20115;-86
2023/03/20 01:22:50;;;;;;;14.38;5.03;;;10.60;92.60;;;;;;5077725;28;20027;-86
2023/03/20 01:25:16;;;;;;;13.32;5.38;;;10.60;92.50;;;;;;5061296;28;20374;-86
2023/03/20 01:27:53;;;;;;;9.73;5.00;;;10.60;92.50;;;;;;5078701;28;20074;-86
2023/03/20 01:30:32;;;;;;;11.07;4.55;;;10.60;92.60;;;;;;5062598;28;20020;-85
2023/03/20 01:33:00;;;;;;;10.93;4.72;;;10.50;92.50;;;;;;5078437;28;20366;-85
2023/03/20 01:35:27;;;;;;;10.77;4.85;;;10.60;92.40;;;;;;5078780;28;20428;-86
2023/03/20 01:37:55;;;;;;;9.95;4.25;;;10.60;92.40;;;;;;5061573;28;20028;-86
2023/03/20 01:40:32;;;;;;;13.50;4.72;;;10.60;92.30;;;;;;5095440;28;20047;-86
2023/03/20 01:42:58;;;;;;;10.30;4.05;;;10.60;92.40;;;;;;5096558;28;20013;-86
2023/03/20 01:45:32;;;;;;;11.57;4.32;;;10.50;92.20;;;;;;5077819;28;20496;-85
2023/03/20 01:47:58;;;;;;;11.55;4.45;;;10.40;92.20;;;;;;5077492;28;20441;-86
2023/03/20 01:50:30;;;;;;;12.93;5.25;;;10.50;92.20;;;;;;5045361;28;20009;-86
2023/03/20 01:53:21;;;;;;;10.20;4.60;;;10.50;92.10;;;;;;5078177;28;20035;-85
2023/03/20 01:55:50;;;;;;;10.50;4.22;;;10.50;92.10;;;;;;5077213;28;20151;-86
2023/03/20 01:58:20;;;;;;;12.38;4.63;;;10.50;92.10;;;;;;5078761;28;20028;-86
2023/03/20 02:00:47;;;;;;;10.98;4.60;;;10.50;92.00;;;;;;5077483;28;20045;-85
2023/03/20 02:03:14;;;;;;;9.35;4.07;;;10.50;92.10;;;;;;5060551;28;20027;-85
2023/03/20 02:05:42;;;;;;;9.82;4.28;;;10.40;92.00;;;;;;5060468;28;20051;-86
2023/03/20 02:08:26;;;;;;;10.18;4.70;;;10.40;92.00;;;;;;5078162;28;20024;-86
2023/03/20 02:10:53;;;;;;;10.77;4.47;;;10.30;92.00;;;;;;5078016;28;20158;-86
2023/03/20 02:13:19;;;;;;;12.38;4.75;;;10.30;92.10;;;;;;5043894;28;20059;-86
2023/03/20 02:16:15;;;;;;;11.05;4.45;;;10.30;92.00;;;;;;5060937;28;20032;-85
2023/03/20 02:18:44;;;;;;;12.93;4.25;;;10.30;91.90;;;;;;5061028;28;20094;-85
2023/03/20 02:21:51;;;;;;;13.48;5.15;;;10.30;91.90;;;;;;5060085;28;20439;-85
2023/03/20 02:24:35;;;;;;;13.98;4.88;;;10.30;91.80;;;;;;5039589;28;20486;-86
2023/03/20 02:27:38;;;;;;;14.35;4.90;;;10.30;91.80;;;;;;5077637;28;20024;-86
2023/03/20 02:30:23;;;;;;;10.85;4.47;;;10.20;91.70;;;;;;5076758;28;20024;-86
2023/03/20 02:33:22;;;;;;;11.32;4.70;;;10.20;91.50;;;;;;5077480;28;20031;-86
2023/03/20 02:36:22;;;;;;;11.13;4.47;;;10.20;91.60;;;;;;5094839;28;20028;-85
2023/03/20 02:38:56;;;;;;;11.48;5.07;;;10.20;91.60;;;;;;5095001;28;20032;-86
2023/03/20 02:41:25;;;;;;;11.90;5.03;;;10.10;91.60;;;;;;5076406;28;20108;-85
2023/03/20 02:44:04;;;;;;;12.18;4.65;;;10.00;91.60;;;;;;5076028;28;20608;-85
2023/03/20 02:46:58;;;;;;;14.55;5.53;;;10.00;91.80;;;;;;5076548;28;20020;-86
2023/03/20 02:49:41;;;;;;;10.45;4.90;;;10.00;91.80;;;;;;5094223;28;20020;-86
2023/03/20 02:52:36;;;;;;;16.02;5.60;;;9.90;91.90;;;;;;5076807;28;20448;-86
2023/03/20 02:55:25;;;;;;;15.55;5.72;;;9.90;91.80;;;;;;5046075;28;20047;-85
2023/03/20 02:58:14;;;;;;;15.25;5.55;;;9.80;92.00;;;;;;5095121;28;20051;-85
2023/03/20 03:00:54;;;;;;;15.70;5.72;;;9.80;92.20;;;;;;5076350;28;20028;-86
2023/03/20 03:03:27;;;;;;;16.10;6.00;;;9.70;92.30;;;;;;5076796;28;20028;-86
2023/03/20 03:06:00;;;;;;;14.60;6.43;;;9.60;92.40;;;;;;5094545;28;20536;-86
2023/03/20 03:08:34;;;;;;;15.20;6.40;;;9.70;92.40;;;;;;5076588;28;20024;-85
2023/03/20 03:11:06;;;;;;;16.95;6.68;;;9.70;92.30;;;;;;5077451;28;20111;-85
2023/03/20 03:13:37;;;;;;;19.77;6.38;;;9.70;92.30;;;;;;5075848;28;20081;-85
2023/03/20 03:16:09;;;;;;;14.27;6.10;;;9.70;92.30;;;;;;5094062;28;20053;-85
2023/03/20 03:18:37;;;;;;;15.85;6.22;;;9.70;92.30;;;;;;5076461;28;20060;-85
2023/03/20 03:21:06;;;;;;;17.17;6.65;;;9.70;92.10;;;;;;5076667;28;20028;-84
2023/03/20 03:23:41;;;;;;;16.38;6.65;;;9.70;92.00;;;;;;5076208;28;20370;-85
2023/03/20 03:26:31;;;;;;;13.38;5.60;;;9.70;92.10;;;;;;5076342;28;20029;-85
2023/03/20 03:29:09;;;;;;;13.23;5.82;;;9.60;92.10;;;;;;5076732;28;20496;-85
2023/03/20 03:31:36;;;;;;;15.52;5.97;;;9.50;92.10;;;;;;5076278;28;20474;-85
2023/03/20 03:34:03;;;;;;;16.55;6.30;;;9.50;92.20;;;;;;5058915;28;20557;-86
2023/03/20 03:36:34;;;;;;;18.50;7.15;;;9.40;92.30;;;;;;5059815;28;20466;-85
2023/03/20 03:39:06;;;;;;;16.35;6.95;;;9.40;92.40;;;;;;5076094;28;20024;-86
2023/03/20 03:42:01;;;;;;;17.52;6.95;;;9.30;92.70;;;;;;5075995;28;20012;-86
2023/03/20 03:44:30;;;;;;;16.80;6.32;;;9.20;93.00;;;;;;5063543;28;20036;-86
2023/03/20 03:47:11;;;;;;;16.88;6.38;;;9.20;93.00;;;;;;5094905;28;20101;-85
2023/03/20 03:49:42;;;;;;;20.00;7.10;;;9.20;93.00;;;;;;5075850;28;20058;-86
2023/03/20 03:52:17;;;;;;;18.15;6.72;;;9.10;93.10;;;;;;5075788;28;20024;-85
2023/03/20 03:54:46;;;;;;;19.13;7.38;;;9.10;93.10;;;;;;5075687;28;20255;-85
2023/03/20 03:57:16;;;;;;;16.77;6.30;;;9.10;93.20;;;;;;5075624;28;20040;-85
2023/03/20 03:59:46;;;;;;;18.38;7.03;;;9.00;93.30;;;;;;5094137;28;20020;-86
2023/03/20 04:02:13;;;;;;;18.05;6.93;;;8.90;93.50;;;;;;5076164;28;20024;-85
2023/03/20 04:04:45;;;;;;;20.63;7.28;;;8.90;93.50;;;;;;5075714;28;20489;-86
2023/03/20 04:07:12;;;;;;;16.00;6.68;;;8.90;93.40;;;;;;5075985;28;20017;-86
2023/03/20 04:09:37;;;;;;;19.00;6.40;;;8.90;93.30;;;;;;5075869;28;20477;-85
2023/03/20 04:12:03;;;;;;;18.10;7.28;;;8.90;93.30;;;;;;5075961;28;20043;-85
2023/03/20 04:14:29;;;;;;;17.50;6.28;;;8.90;93.30;;;;;;5058766;28;20036;-85
2023/03/20 04:16:55;;;;;;;13.27;6.60;;;8.90;93.40;;;;;;5059562;28;20024;-85
2023/03/20 04:19:20;;;;;;;18.67;6.93;;;8.80;93.50;;;;;;5059761;28;20485;-85
2023/03/20 04:21:46;;;;;;;20.67;7.40;;;8.80;93.60;;;;;;5063159;28;20630;-86
2023/03/20 04:24:11;;;;;;;17.20;6.88;;;8.80;93.60;;;;;;5062583;28;20020;-86
2023/03/20 04:26:38;;;;;;;19.63;7.30;;;8.80;93.60;;;;;;5079851;28;20025;-85
2023/03/20 04:29:04;;;;;;;14.00;6.20;;;8.80;93.70;;;;;;5062585;28;20114;-85
2023/03/20 04:31:30;;;;;;;16.27;6.50;;;8.70;93.60;;;;;;5080066;28;20038;-85
2023/03/20 04:33:55;;;;;;;23.48;7.35;;;8.70;93.70;;;;;;5079733;28;20038;-85
2023/03/20 04:36:21;;;;;;;18.25;6.78;;;8.60;93.90;;;;;;5062496;28;20032;-86
2023/03/20 04:38:47;;;;;;;12.18;5.65;;;8.60;94.00;;;;;;5096756;28;20073;-86
2023/03/20 04:41:13;;;;;;;18.45;6.78;;;8.50;94.10;;;;;;5062694;28;20052;-85
2023/03/20 04:43:39;;;;;;;19.30;6.35;;;8.50;94.20;;;;;;5063389;28;20081;-85
2023/03/20 04:46:05;;;;;;;14.80;5.88;;;8.40;94.40;;;;;;5079541;28;20462;-85
2023/03/20 04:48:31;;;;;;;20.63;7.07;;;8.40;94.30;;;;;;5062375;28;20054;-85
2023/03/20 04:50:56;;;;;;;16.25;6.80;;;8.40;94.30;;;;;;5061783;28;20024;-86
2023/03/20 04:53:22;;;;;;;18.02;6.20;;;8.40;94.30;;;;;;5078653;28;20035;-86
2023/03/20 04:55:49;;;;;;;15.65;6.60;;;8.40;94.50;;;;;;5062189;28;20056;-85
2023/03/20 04:58:15;;;;;;;12.88;5.30;;;8.30;94.60;;;;;;5061830;28;20044;-86
2023/03/20 05:00:43;;;;;;;15.25;6.97;;;8.30;94.80;;;;;;5078419;28;20032;-85
2023/03/20 05:03:11;;;;;;;16.88;6.63;;;8.40;94.60;;;;;;5061995;28;20515;-85
2023/03/20 05:05:36;;;;;;;17.35;6.18;;;8.30;94.70;;;;;;5062223;28;20046;-85
2023/03/20 05:08:05;;;;;;;17.60;6.80;;;8.30;94.70;;;;;;5062260;28;20032;-85
2023/03/20 05:10:30;;;;;;;16.70;6.30;;;8.30;94.80;;;;;;5062781;28;20024;-85
2023/03/20 05:12:56;;;;;;;15.82;5.68;;;8.30;94.80;;;;;;5062032;28;20386;-86
2023/03/20 05:15:22;;;;;;;13.07;5.78;;;8.30;94.70;;;;;;5061463;28;20478;-85
2023/03/20 05:17:48;;;;;;;14.07;6.35;;;8.30;94.70;;;;;;5061525;28;20032;-86
2023/03/20 05:20:14;;;;;;;14.07;5.97;;;8.30;94.80;;;;;;5061474;28;20409;-85
2023/03/20 05:22:39;;;;;;;16.45;6.43;;;8.30;94.70;;;;;;5061064;28;20024;-86
2023/03/20 05:25:05;;;;;;;18.20;6.32;;;8.30;94.60;;;;;;5061368;28;20050;-85
2023/03/20 05:27:31;;;;;;;20.33;6.40;;;8.40;94.50;;;;;;5061235;28;20489;-85
2023/03/20 05:29:57;;;;;;;16.42;6.88;;;8.40;94.40;;;;;;5061126;28;20033;-85
2023/03/20 05:32:22;;;;;;;16.70;6.55;;;8.40;94.30;;;;;;5060228;28;20051;-85
2023/03/20 05:34:48;;;;;;;15.18;6.35;;;8.30;94.40;;;;;;5077848;28;20489;-86
2023/03/20 05:37:14;;;;;;;18.17;7.10;;;8.40;94.50;;;;;;5060916;28;20032;-85
2023/03/20 05:39:39;;;;;;;14.70;5.93;;;8.30;94.60;;;;;;5077752;28;20024;-86
2023/03/20 05:42:05;;;;;;;12.43;5.65;;;8.30;94.60;;;;;;5060552;28;20119;-86
2023/03/20 05:44:31;;;;;;;16.50;6.25;;;8.30;94.80;;;;;;5061792;28;20080;-85
2023/03/20 05:46:56;;;;;;;17.35;6.63;;;8.20;94.80;;;;;;5078371;28;20031;-85
2023/03/20 05:49:22;;;;;;;13.35;6.18;;;8.20;94.80;;;;;;5060834;28;20024;-86
2023/03/20 05:51:47;;;;;;;16.65;6.32;;;8.30;94.80;;;;;;5077650;28;20024;-86
2023/03/20 05:54:13;;;;;;;14.30;5.43;;;8.20;94.70;;;;;;5060878;28;20026;-85
2023/03/20 05:56:39;;;;;;;15.00;6.50;;;8.20;94.70;;;;;;5060421;28;20058;-85
2023/03/20 05:59:04;;;;;;;14.27;6.28;;;8.30;94.80;;;;;;5060642;28;20070;-85
2023/03/20 06:01:30;;;;;;;17.75;5.93;;;8.30;94.80;;;;;;5061044;28;20074;-86
2023/03/20 06:03:55;;;;;;;17.90;6.78;;;8.30;94.60;;;;;;5051952;28;20039;-86
2023/03/20 06:06:21;;;;;;;16.65;6.18;;;8.30;94.40;;;;;;5034116;28;20097;-86
2023/03/20 06:08:47;;;;;;;16.42;5.85;;;8.30;94.50;;;;;;5042817;28;20425;-80
2023/03/20 06:11:12;;;;;;;14.75;6.15;;;8.30;94.50;;;;;;5056654;28;20028;-80
2023/03/20 06:13:38;;;;;;;15.90;5.85;;;8.30;94.50;;;;;;5056287;28;20020;-80
2023/03/20 06:16:04;;;;;;;13.80;5.65;;;8.30;94.40;;;;;;5056081;28;20036;-80
2023/03/20 06:18:30;;;;;;;14.13;6.03;;;8.20;94.40;;;;;;5056993;28;20033;-79
2023/03/20 06:20:56;;;;;;;13.63;5.50;;;8.20;94.40;;;;;;5056206;28;20039;-78
2023/03/20 06:23:23;;;;;;;12.88;5.55;;;8.20;94.40;;;;;;5056022;28;20035;-78
2023/03/20 06:25:48;;;;;;;14.20;5.47;;;8.20;94.60;;;;;;5073705;28;20410;-78
2023/03/20 06:28:15;;;;;;;14.32;5.20;;;8.30;94.60;;;;;;5039343;28;20024;-81
2023/03/20 06:30:42;;;;;;;17.00;5.80;;;8.30;94.50;;;;;;5056555;28;20048;-83
2023/03/20 06:33:08;;;;;;;12.93;4.93;;;8.20;94.40;;;;;;5040167;28;20044;-83
2023/03/20 06:35:34;;;;;;;17.17;5.72;;;8.30;94.40;;;;;;5056152;28;20025;-84
2023/03/20 06:38:00;;;;;;;11.82;5.05;;;8.30;94.30;;;;;;5056469;28;20115;-83
2023/03/20 06:40:28;;;;;;;14.48;5.25;;;8.40;94.40;;;;;;5039536;28;20036;-82
2023/03/20 06:42:54;;;;;;;13.07;5.13;;;8.50;94.30;;;;;;5039366;28;20103;-84
2023/03/20 06:45:21;;;;;;;11.00;4.63;;;8.50;94.30;;;;;;5076003;28;20036;-83
2023/03/20 06:47:47;;;;;;;12.52;5.00;;;8.60;94.00;;;;;;5077560;28;20031;-83
2023/03/20 06:50:13;;;;;;;10.65;5.43;;;8.50;94.10;;;;;;5094245;28;20031;-83
2023/03/20 06:52:39;;;;;;;14.57;5.40;;;8.50;94.20;;;;;;5094351;28;20024;-83
2023/03/20 06:55:06;;;;;;;9.43;4.93;;;8.60;94.20;;;;;;5047564;28;20081;-83
2023/03/20 06:57:32;;;;;;;11.40;5.38;;;8.50;94.10;;;;;;5054522;28;20053;-83
2023/03/20 06:59:59;;;;;;;13.05;5.15;;;8.50;94.00;;;;;;5054332;28;20493;-83
2023/03/20 07:02:25;;;;;;;14.57;4.82;;;8.50;94.10;;;;;;5055199;28;20040;-83
2023/03/20 07:04:51;;;;;;;10.63;5.13;;;8.40;94.30;;;;;;5064180;28;20020;-83
2023/03/20 07:07:17;;;;;;;11.70;4.57;;;8.40;94.30;;;;;;5103725;28;20023;-83
2023/03/20 07:09:44;;;;;;;11.77;5.15;;;8.40;94.50;;;;;;5095409;28;20016;-83
2023/03/20 07:12:13;;;;;;;11.50;5.15;;;8.40;94.30;;;;;;5095954;28;20402;-83
2023/03/20 07:14:40;;;;;;;10.85;4.80;;;8.40;94.50;;;;;;5064284;28;20020;-84
2023/03/20 07:17:07;;;;;;;14.13;5.75;;;8.50;94.50;;;;;;5070707;28;20028;-83
2023/03/20 07:19:34;;;;;;;14.60;4.70;;;8.50;94.70;;;;;;5076203;28;20020;-83
2023/03/20 07:22:01;;;;;;;10.57;4.65;;;8.50;94.40;;;;;;5059343;28;20028;-83
2023/03/20 07:24:27;;;;;;;13.45;4.88;;;8.50;94.40;;;;;;5075552;28;20032;-83
2023/03/20 07:26:53;;;;;;;12.13;4.78;;;8.50;94.20;;;;;;5059400;28;20066;-83
2023/03/20 07:29:19;;;;;;;15.00;4.90;;;8.60;94.10;;;;;;5043229;28;20024;-83
2023/03/20 07:31:45;;;;;;;12.90;5.13;;;8.60;93.90;;;;;;5077290;28;20044;-83
2023/03/20 07:34:16;;;;;;;10.95;4.55;;;8.60;94.00;;;;;;5043143;28;20090;-84
2023/03/20 07:36:41;;;;;;;11.73;4.72;;;8.60;93.80;;;;;;5076697;28;20462;-84
2023/03/20 07:39:07;;;;;;;10.52;5.05;;;8.70;93.60;;;;;;5058920;28;20029;-84
2023/03/20 07:41:33;;;;;;;10.50;4.47;;;8.70;93.50;;;;;;5060541;28;20028;-83
2023/03/20 07:43:59;;;;;;;15.98;4.97;;;8.80;93.40;;;;;;5060969;28;20024;-84
2023/03/20 07:46:25;;;;;;;13.32;3.90;;;8.70;93.70;;;;;;5046471;28;20024;-84
2023/03/20 07:48:51;;;;;;;10.15;4.32;;;8.70;93.80;;;;;;5078872;28;20022;-84
2023/03/20 07:51:17;;;;;;;11.23;4.47;;;8.70;93.80;;;;;;5061078;28;20024;-84
2023/03/20 07:53:42;;;;;;;14.10;4.85;;;8.80;93.70;;;;;;5043829;28;20474;-84
2023/03/20 07:56:09;;;;;;;11.05;4.38;;;8.80;93.40;;;;;;5078819;28;20214;-83
2023/03/20 07:58:35;;;;;;;14.68;4.78;;;8.80;93.60;;;;;;5080955;28;20087;-83
2023/03/20 08:01:02;;;;;;;14.38;4.63;;;8.80;93.60;;;;;;5066390;28;20056;-83
2023/03/20 08:03:28;;;;;;;10.70;4.43;;;8.80;93.50;;;;;;5081499;28;20032;-83
2023/03/20 08:05:54;;;;;;;13.45;4.80;;;8.80;93.40;;;;;;5045481;28;20077;-83
2023/03/20 08:08:20;;;;;;;11.68;4.43;;;8.90;93.50;;;;;;5062283;28;20023;-83
2023/03/20 08:10:46;;;;;;;11.45;4.28;;;8.80;93.30;;;;;;5062335;28;20028;-83
2023/03/20 08:13:12;;;;;;;8.75;3.72;;;8.80;92.90;;;;;;5064381;28;20024;-83
2023/03/20 08:15:37;;;;;;;10.18;4.38;;;8.90;93.20;;;;;;5097407;28;20387;-84
2023/03/20 08:18:04;;;;;;;10.60;3.95;;;8.90;93.10;;;;;;5063106;28;20108;-85
2023/03/20 08:20:30;;;;;;;9.75;4.53;;;8.90;93.20;;;;;;5079797;28;20024;-84
2023/03/20 08:22:56;;;;;;;11.00;5.05;;;8.90;93.10;;;;;;5046090;28;20039;-85
2023/03/20 08:25:21;;;;;;;14.98;4.13;;;9.00;92.70;;;;;;5062417;28;20058;-84
2023/03/20 08:27:48;;;;;;;15.50;4.13;;;9.00;92.60;;;;;;5063853;28;20020;-86
2023/03/20 08:30:14;;;;;;;9.73;3.75;;;9.00;92.50;;;;;;5079642;28;20031;-87
2023/03/20 08:32:40;;;;;;;14.82;4.32;;;9.00;92.50;;;;;;5063175;28;20031;-83
2023/03/20 08:35:07;;;;;;;11.93;3.75;;;9.00;92.50;;;;;;5045856;28;20027;-84
2023/03/20 08:37:33;;;;;;;10.05;4.47;;;9.10;92.10;;;;;;5079040;28;20031;-84
2023/03/20 08:39:59;;;;;;;11.40;3.97;;;9.00;91.90;;;;;;5079746;28;20083;-85
2023/03/20 08:42:25;;;;;;;9.05;3.22;;;9.00;91.70;;;;;;5044496;28;20476;-84
2023/03/20 08:44:50;;;;;;;9.95;4.05;;;9.00;91.90;;;;;;5062473;28;20021;-84
2023/03/20 08:47:16;;;;;;;9.13;3.75;;;9.00;91.50;;;;;;5045321;28;20044;-84
2023/03/20 08:49:42;;;;;;;7.82;3.45;;;9.10;91.70;;;;;;5061664;28;20028;-85
2023/03/20 08:52:08;;;;;;;12.80;4.55;;;9.00;91.40;;;;;;5061316;28;20047;-86
2023/03/20 08:54:33;;;;;;;8.10;3.10;;;9.00;91.50;;;;;;5044873;28;20585;-84
2023/03/20 08:56:59;;;;;;;10.90;3.78;;;9.10;91.50;;;;;;5045076;28;20036;-84
2023/03/20 08:59:25;;;;;;;8.25;3.92;;;9.10;91.60;;;;;;5063276;28;20054;-84
2023/03/20 09:01:50;;;;;;;7.90;3.83;;;9.10;91.30;;;;;;5061956;28;20030;-84
2023/03/20 09:04:16;;;;;;;12.57;3.67;;;9.20;91.30;;;;;;5061482;28;20107;-84
2023/03/20 09:06:42;;;;;;;7.95;3.35;;;9.20;91.50;;;;;;5077958;28;20031;-84
2023/03/20 09:09:08;;;;;;;9.50;3.45;;;9.20;91.40;;;;;;5061217;28;20469;-84
2023/03/20 09:11:34;;;;;;;6.38;2.58;;;9.20;91.40;;;;;;5077726;28;20099;-85
2023/03/20 09:14:00;;;;;;;8.50;2.75;;;9.20;91.20;;;;;;5078446;28;20448;-85
2023/03/20 09:16:26;;;;;;;8.48;3.35;;;9.10;91.10;;;;;;5095615;28;20032;-85
2023/03/20 09:18:51;;;;;;;9.60;3.47;;;9.10;91.30;;;;;;5077661;28;20024;-85
2023/03/20 09:21:17;;;;;;;8.95;3.08;;;9.20;90.90;;;;;;5044639;28;20071;-84
2023/03/20 09:23:43;;;;;;;7.15;2.58;;;9.20;91.10;;;;;;5061630;28;20405;-85
2023/03/20 09:26:08;;;;;;;10.77;3.47;;;9.10;90.90;;;;;;5045011;28;20436;-85
2023/03/20 09:28:34;;;;;;;6.60;3.17;;;9.10;91.60;;;;;;5078100;28;20115;-85
2023/03/20 09:31:00;;;;;;;9.93;3.47;;;9.10;91.00;;;;;;5061133;28;20436;-85
2023/03/20 09:33:26;;;;;;;7.38;3.17;;;9.20;91.20;;;;;;5060888;28;20348;-85
2023/03/20 09:35:52;;;;;;;9.70;3.75;;;9.10;91.20;;;;;;5077622;28;20557;-85
2023/03/20 09:38:18;;;;;;;6.78;3.03;;;9.10;91.90;;;;;;5060766;28;20123;-85
2023/03/20 09:40:46;;;;;;;7.30;3.13;;;9.10;92.40;;;;;;5077895;28;20056;-86
2023/03/20 09:43:18;;;;;;;14.55;3.95;;;9.10;91.70;;;;;;5078040;28;20047;-85
2023/03/20 09:46:21;;;;;;;14.20;3.80;;;9.10;92.10;;;;;;5095692;28;20103;-85
2023/03/20 09:49:17;;;;;;;11.82;3.90;;;9.20;92.30;;;;;;5077421;28;20396;-85
2023/03/20 09:51:59;;;;;;;9.63;3.42;;;9.20;93.00;;;;;;5077285;28;20032;-85
2023/03/20 09:54:36;;;;;;;10.32;3.40;;;9.20;93.10;;;;;;5077104;28;20035;-86
2023/03/20 09:57:03;;;;;;;8.45;3.40;;;9.30;93.20;;;;;;5077078;28;20044;-87
2023/03/20 09:59:33;;;;;;;7.18;3.10;;;9.30;93.40;;;;;;5095242;28;20103;-85
2023/03/20 10:02:11;;;;;;;8.82;3.05;;;9.30;93.00;;;;;;5060557;28;20024;-84
2023/03/20 10:04:38;;;;;;;6.43;3.03;;;9.30;92.70;;;;;;5076617;28;20058;-84
2023/03/20 10:07:05;;;;;;;7.38;3.30;;;9.40;92.80;;;;;;5062068;28;20559;-84
2023/03/20 10:09:32;;;;;;;6.80;3.00;;;9.40;92.10;;;;;;5060174;28;20028;-84
2023/03/20 10:12:27;;;;;;;6.45;2.47;;;9.40;91.00;;;;;;5060081;28;20031;-84
2023/03/20 10:15:00;;;;;;;9.00;2.65;;;9.40;91.20;;;;;;5076394;28;20023;-85
2023/03/20 10:17:44;;;;;;;4.40;2.38;;;9.40;91.70;;;;;;5093778;28;20047;-85
2023/03/20 10:20:19;;;;;;;6.20;2.38;;;9.40;92.00;;;;;;5094847;28;20462;-85
2023/03/20 10:22:54;;;;;;;7.35;2.90;;;9.40;91.40;;;;;;5076019;28;20092;-84
2023/03/20 10:25:43;;;;;;;5.47;2.47;;;9.40;91.60;;;;;;5075945;28;20482;-84
2023/03/20 10:28:33;;;;;;;8.57;2.50;;;9.30;92.10;;;;;;5075260;28;20027;-84
2023/03/20 10:31:41;;;;;;;3.47;2.08;;;9.30;91.70;;;;;;5076290;28;20040;-85
2023/03/20 10:34:20;;;;;;;5.93;1.90;;;9.40;92.10;;;;;;5075957;28;20546;-84
2023/03/20 10:36:53;;;;;;;5.97;1.90;;;9.40;92.40;;;;;;5075813;28;20024;-84
2023/03/20 10:39:41;;;;;;;7.30;2.47;;;9.40;91.80;;;;;;5094081;28;20085;-84
2023/03/20 10:42:16;;;;;;;3.85;2.03;;;9.40;91.20;;;;;;5094005;28;20024;-84
2023/03/20 10:44:47;;;;;;;8.20;2.40;;;9.40;92.00;;;;;;5093953;28;20095;-84
2023/03/20 10:47:17;;;;;;;6.47;2.70;;;9.40;92.50;;;;;;5093854;28;20035;-84
2023/03/20 10:49:56;;;;;;;8.45;2.70;;;9.40;91.40;;;;;;5075834;28;20023;-84
2023/03/20 10:52:32;;;;;;;3.97;2.03;;;9.40;92.20;;;;;;5075704;28;20028;-84
2023/03/20 10:55:02;;;;;;;6.55;2.22;;;9.40;91.40;;;;;;5075676;28;20032;-84
2023/03/20 10:57:33;;;;;;;7.13;2.22;;;9.30;91.40;;;;;;5093641;28;20070;-84
2023/03/20 10:59:59;;;;;;;3.00;1.77;;;9.30;91.10;;;;;;5075391;28;20024;-84
2023/03/20 11:02:29;;;;;;;6.20;3.00;;;9.20;91.70;;;;;;5075443;28;20370;-84
2023/03/20 11:04:55;;;;;;;6.32;2.95;;;9.20;92.50;;;;;;5075522;28;20048;-84
2023/03/20 11:07:32;;;;;;;6.57;2.47;;;9.20;92.70;;;;;;5059094;28;20070;-84
2023/03/20 11:10:03;;;;;;;5.30;2.58;;;9.20;93.00;;;;;;5075424;28;20453;-85
2023/03/20 11:12:52;;;;;;;8.90;2.90;;;9.30;93.40;;;;;;5075674;28;20032;-85
2023/03/20 11:15:30;;;;;;;7.80;2.78;;;9.30;93.90;;;;;;5074579;28;20624;-84
2023/03/20 11:17:57;;;;;;;8.25;2.88;;;9.30;93.30;;;;;;5075356;28;20054;-84
2023/03/20 11:20:24;;;;;;;5.45;2.75;;;9.20;93.60;;;;;;5075049;28;20032;-84
2023/03/20 11:22:57;;;;;;;7.07;2.90;;;9.20;94.40;;;;;;5075656;28;20079;-84
2023/03/20 11:25:31;;;;;;;;;;;9.20;93.90;;;;;;5075692;28;20077;-83
2023/03/20 11:28:17;;;;;;;6.43;2.53;;;9.30;93.80;;;;;;5075159;28;20003;-84
2023/03/20 11:30:43;;;;;;;5.22;2.03;;;9.20;93.50;;;;;;5063944;28;20033;-84
2023/03/20 11:33:10;;;;;;;9.85;3.25;;;9.30;94.40;;;;;;5062914;28;20123;-84
2023/03/20 11:35:35;;;;;;;5.00;2.75;;;9.20;94.50;;;;;;5079729;28;20035;-84
2023/03/20 11:38:18;;;;;;;5.80;2.92;;;9.20;93.90;;;;;;5080002;28;20032;-84
2023/03/20 11:40:46;;;;;;;;;;;9.30;94.50;;;;;;5098090;28;20043;-84
2023/03/20 11:43:17;;;;;;;7.50;2.97;;;9.30;93.90;;;;;;5062964;28;19912;-85
2023/03/20 11:45:49;;;;;;;4.20;2.00;;;9.30;93.70;;;;;;5079407;28;20228;-84
2023/03/20 11:48:19;;;;;;;;;;;9.30;94.10;;;;;;5098008;28;20095;-84
2023/03/20 11:50:55;;;;;;;4.35;1.98;;;9.40;94.10;;;;;;5079018;28;20353;-84
2023/03/20 11:53:27;;;;;;;8.90;2.40;;;9.30;93.50;;;;;;5097364;28;20546;-84
2023/03/20 11:56:12;;;;;;;8.57;2.73;;;9.30;93.30;;;;;;5078964;28;20114;-84
2023/03/20 11:58:55;;;;;;;4.25;2.08;;;9.30;94.30;;;;;;5097360;28;20039;-85
2023/03/20 12:01:21;;;;;;;8.57;2.85;;;9.30;93.30;;;;;;5078806;28;20031;-84
2023/03/20 12:03:58;;;;;;;8.75;2.92;;;9.30;94.00;;;;;;5062330;28;20040;-84
2023/03/20 12:06:26;;;;;;;6.65;2.22;;;9.30;93.60;;;;;;5078980;28;20016;-84
2023/03/20 12:09:02;;;;;;;3.28;1.48;;;9.40;94.20;;;;;;5078572;28;20028;-84
2023/03/20 12:11:45;;;;;;;7.85;3.60;;;9.40;93.10;;;;;;5078715;28;20063;-84
2023/03/20 12:14:34;;;;;;;7.85;3.30;;;9.50;93.00;;;;;;5097392;28;20020;-84
2023/03/20 12:17:33;;;;;;;9.23;3.55;;;9.50;93.60;;;;;;5078700;28;20035;-85
2023/03/20 12:20:10;;;;;;;6.80;3.63;;;9.60;93.50;;;;;;5064162;28;20185;-84
2023/03/20 12:23:01;;;;;;;9.00;3.30;;;9.60;93.00;;;;;;5078545;28;20111;-84
2023/03/20 12:25:37;;;;;;;9.57;3.55;;;9.60;92.60;;;;;;5041267;28;20111;-85
2023/03/20 12:28:29;;;;;;;5.85;3.08;;;9.60;93.00;;;;;;5078782;28;20133;-85
2023/03/20 12:31:13;;;;;;;6.82;2.92;;;9.70;93.40;;;;;;5096902;28;20103;-85
2023/03/20 12:33:46;;;;;;;8.68;3.15;;;9.80;93.30;;;;;;5078696;28;20024;-85
2023/03/20 12:36:33;;;;;;;7.88;3.55;;;9.80;93.30;;;;;;5078403;28;20080;-85
2023/03/20 13:28:39;;;;;;;11.77;4.70;;;9.40;94.10;;;;;;5084682;27;1363218;-71
2023/03/20 13:31:14;;;;;;;8.40;4.55;;;10.80;91.40;;;;;;5109740;28;20038;-74
2023/03/20 13:33:45;;;;;;;6.68;3.50;;;10.80;92.30;;;;;;5109721;28;20020;-70
2023/03/20 13:36:17;;;;;;;7.85;3.67;;;10.50;91.00;;;;;;5110467;28;20080;-71
2023/03/20 13:38:48;;;;;;;6.55;3.30;;;10.50;91.30;;;;;;5110544;28;20021;-71
2023/03/20 13:41:15;;;;;;;9.32;4.05;;;10.30;91.40;;;;;;5110503;28;20021;-70
2023/03/20 13:43:52;;;;;;;9.13;4.10;;;10.30;91.50;;;;;;5110512;28;20039;-70
2023/03/20 13:46:23;;;;;;;8.30;3.20;;;10.30;91.80;;;;;;5110562;28;20028;-70
2023/03/20 13:48:51;;;;;;;8.52;3.50;;;10.20;91.90;;;;;;5110470;28;20024;-70
2023/03/20 13:51:33;;;;;;;11.45;2.90;;;10.20;92.20;;;;;;5109349;28;20028;-70
2023/03/20 13:54:25;;;;;;;10.60;4.18;;;10.10;92.20;;;;;;5109342;28;20043;-71
2023/03/20 13:57:01;;;;;;;8.52;4.05;;;10.10;92.70;;;;;;5110297;28;20058;-71